sensor_id;sensor_type;location;lat;lon;timestamp;temperature;humidity
42099;DHT22;27758;55.900;8.516;2022-09-27T00:01:16;11.40;99.90
42099;DHT22;27758;55.900;8.516;2022-09-27T00:03:42;11.50;99.90
42099;DHT22;27758;55.900;8.516;2022-09-27T00:06:19;11.40;99.90
42099;DHT22;27758;55.900;8.516;2022-09-27T00:08:46;11.40;99.90
42099;DHT22;27758;55.900;8.516;2022-09-27T00:11:45;11.40;99.90
42099;DHT22;27758;55.900;8.516;2022-09-27T00:14:13;11.30;99.90
42099;DHT22;27758;55.900;8.516;2022-09-27T00:16:40;11.30;99.90
42099;DHT22;27758;55.900;8.516;2022-09-27T00:19:15;11.30;99.90
42099;DHT22;27758;55.900;8.516;2022-09-27T00:21:43;11.30;99.90
42099;DHT22;27758;55.900;8.516;2022-09-27T00:24:13;11.30;99.90
42099;DHT22;27758;55.900;8.516;2022-09-27T00:26:39;11.30;99.90
42099;DHT22;27758;55.900;8.516;2022-09-27T00:29:05;11.30;99.90
42099;DHT22;27758;55.900;8.516;2022-09-27T00:31:31;11.10;99.90
42099;DHT22;27758;55.900;8.516;2022-09-27T00:33:59;11.20;99.90
42099;DHT22;27758;55.900;8.516;2022-09-27T00:36:26;11.10;99.90
42099;DHT22;27758;55.900;8.516;2022-09-27T00:38:53;11.10;99.90
42099;DHT22;27758;55.900;8.516;2022-09-27T00:41:26;11.20;99.90
42099;DHT22;27758;55.900;8.516;2022-09-27T00:43:55;11.10;99.90
42099;DHT22;27758;55.900;8.516;2022-09-27T00:46:29;11.10;99.90
42099;DHT22;27758;55.900;8.516;2022-09-27T00:51:45;11.00;99.90
42099;DHT22;27758;55.900;8.516;2022-09-27T00:54:14;11.00;99.90
42099;DHT22;27758;55.900;8.516;2022-09-27T00:56:41;10.90;99.90
42099;DHT22;27758;55.900;8.516;2022-09-27T00:59:12;11.00;99.90
42099;DHT22;27758;55.900;8.516;2022-09-27T01:01:41;10.90;99.90
42099;DHT22;27758;55.900;8.516;2022-09-27T01:04:10;10.90;99.90
42099;DHT22;27758;55.900;8.516;2022-09-27T01:06:37;10.90;99.90
42099;DHT22;27758;55.900;8.516;2022-09-27T01:09:06;10.90;99.90
42099;DHT22;27758;55.900;8.516;2022-09-27T01:19:53;10.90;99.90
42099;DHT22;27758;55.900;8.516;2022-09-27T01:28:28;10.90;99.90
42099;DHT22;27758;55.900;8.516;2022-09-27T01:31:31;10.90;99.90
42099;DHT22;27758;55.900;8.516;2022-09-27T01:36:44;10.80;99.90
42099;DHT22;27758;55.900;8.516;2022-09-27T01:39:30;10.80;99.90
42099;DHT22;27758;55.900;8.516;2022-09-27T01:42:10;10.80;99.90
42099;DHT22;27758;55.900;8.516;2022-09-27T01:45:06;10.70;99.90
42099;DHT22;27758;55.900;8.516;2022-09-27T01:47:40;10.70;99.90
42099;DHT22;27758;55.900;8.516;2022-09-27T01:50:11;10.60;99.90
42099;DHT22;27758;55.900;8.516;2022-09-27T01:52:57;10.60;99.90
42099;DHT22;27758;55.900;8.516;2022-09-27T01:55:29;10.60;99.90
42099;DHT22;27758;55.900;8.516;2022-09-27T01:58:00;10.60;99.90
42099;DHT22;27758;55.900;8.516;2022-09-27T02:00:27;10.50;99.90
42099;DHT22;27758;55.900;8.516;2022-09-27T02:03:00;10.50;99.90
42099;DHT22;27758;55.900;8.516;2022-09-27T02:05:38;10.50;99.90
42099;DHT22;27758;55.900;8.516;2022-09-27T02:08:15;10.50;99.90
42099;DHT22;27758;55.900;8.516;2022-09-27T02:10:43;10.40;99.90
42099;DHT22;27758;55.900;8.516;2022-09-27T02:16:49;10.30;99.90
42099;DHT22;27758;55.900;8.516;2022-09-27T02:24:50;10.10;99.90
42099;DHT22;27758;55.900;8.516;2022-09-27T02:30:10;10.00;99.90
42099;DHT22;27758;55.900;8.516;2022-09-27T02:32:38;10.00;99.90
42099;DHT22;27758;55.900;8.516;2022-09-27T02:37:37;10.00;99.90
42099;DHT22;27758;55.900;8.516;2022-09-27T02:40:03;10.00;99.90
42099;DHT22;27758;55.900;8.516;2022-09-27T02:42:30;10.00;99.90
42099;DHT22;27758;55.900;8.516;2022-09-27T02:44:56;9.90;99.90
42099;DHT22;27758;55.900;8.516;2022-09-27T02:47:42;9.90;99.90
42099;DHT22;27758;55.900;8.516;2022-09-27T02:55:36;9.80;99.90
42099;DHT22;27758;55.900;8.516;2022-09-27T02:58:16;9.80;99.90
42099;DHT22;27758;55.900;8.516;2022-09-27T03:01:05;9.80;99.90
42099;DHT22;27758;55.900;8.516;2022-09-27T03:04:08;9.90;99.90
42099;DHT22;27758;55.900;8.516;2022-09-27T03:06:37;10.00;99.90
42099;DHT22;27758;55.900;8.516;2022-09-27T03:09:04;10.00;99.90
42099;DHT22;27758;55.900;8.516;2022-09-27T03:11:29;10.10;99.90
42099;DHT22;27758;55.900;8.516;2022-09-27T03:13:55;10.10;99.90
42099;DHT22;27758;55.900;8.516;2022-09-27T03:16:21;10.10;99.90
42099;DHT22;27758;55.900;8.516;2022-09-27T03:18:46;10.10;99.90
42099;DHT22;27758;55.900;8.516;2022-09-27T03:21:12;10.10;99.90
42099;DHT22;27758;55.900;8.516;2022-09-27T03:23:38;10.10;99.90
42099;DHT22;27758;55.900;8.516;2022-09-27T03:26:04;10.10;99.90
42099;DHT22;27758;55.900;8.516;2022-09-27T03:28:29;10.10;99.90
42099;DHT22;27758;55.900;8.516;2022-09-27T03:30:55;10.20;99.90
42099;DHT22;27758;55.900;8.516;2022-09-27T03:33:21;10.20;99.90
42099;DHT22;27758;55.900;8.516;2022-09-27T03:35:47;10.20;99.90
42099;DHT22;27758;55.900;8.516;2022-09-27T03:38:13;10.20;99.90
42099;DHT22;27758;55.900;8.516;2022-09-27T03:40:38;10.20;99.90
42099;DHT22;27758;55.900;8.516;2022-09-27T03:43:04;10.20;99.90
42099;DHT22;27758;55.900;8.516;2022-09-27T03:45:30;10.10;99.90
42099;DHT22;27758;55.900;8.516;2022-09-27T03:47:56;10.10;99.90
42099;DHT22;27758;55.900;8.516;2022-09-27T03:50:22;10.10;99.90
42099;DHT22;27758;55.900;8.516;2022-09-27T03:52:47;10.00;99.90
42099;DHT22;27758;55.900;8.516;2022-09-27T03:55:13;10.00;99.90
42099;DHT22;27758;55.900;8.516;2022-09-27T03:57:44;10.00;99.90
42099;DHT22;27758;55.900;8.516;2022-09-27T04:00:11;10.00;99.90
42099;DHT22;27758;55.900;8.516;2022-09-27T04:02:37;9.90;99.90
42099;DHT22;27758;55.900;8.516;2022-09-27T04:05:03;9.80;99.90
42099;DHT22;27758;55.900;8.516;2022-09-27T04:07:29;9.80;99.90
42099;DHT22;27758;55.900;8.516;2022-09-27T04:09:55;9.70;99.90
42099;DHT22;27758;55.900;8.516;2022-09-27T04:12:21;9.60;99.90
42099;DHT22;27758;55.900;8.516;2022-09-27T04:14:46;9.60;99.90
42099;DHT22;27758;55.900;8.516;2022-09-27T04:17:12;9.60;99.90
42099;DHT22;27758;55.900;8.516;2022-09-27T04:19:38;9.60;99.90
42099;DHT22;27758;55.900;8.516;2022-09-27T04:22:04;9.60;99.90
42099;DHT22;27758;55.900;8.516;2022-09-27T04:24:30;9.70;99.90
42099;DHT22;27758;55.900;8.516;2022-09-27T04:26:56;9.60;99.90
42099;DHT22;27758;55.900;8.516;2022-09-27T04:29:22;9.60;99.90
42099;DHT22;27758;55.900;8.516;2022-09-27T04:31:47;9.70;99.90
42099;DHT22;27758;55.900;8.516;2022-09-27T04:34:13;9.70;99.90
42099;DHT22;27758;55.900;8.516;2022-09-27T04:36:39;9.70;99.90
42099;DHT22;27758;55.900;8.516;2022-09-27T04:39:08;9.70;99.90
42099;DHT22;27758;55.900;8.516;2022-09-27T04:41:34;9.70;99.90
42099;DHT22;27758;55.900;8.516;2022-09-27T04:44:01;9.70;99.90
42099;DHT22;27758;55.900;8.516;2022-09-27T04:46:27;9.70;99.90
42099;DHT22;27758;55.900;8.516;2022-09-27T04:49:00;9.70;99.90
42099;DHT22;27758;55.900;8.516;2022-09-27T04:51:26;9.70;99.90
42099;DHT22;27758;55.900;8.516;2022-09-27T04:53:52;9.60;99.90
42099;DHT22;27758;55.900;8.516;2022-09-27T04:56:19;9.50;99.90
42099;DHT22;27758;55.900;8.516;2022-09-27T04:58:45;9.50;99.90
42099;DHT22;27758;55.900;8.516;2022-09-27T05:01:11;9.50;99.90
42099;DHT22;27758;55.900;8.516;2022-09-27T05:03:37;9.50;99.90
42099;DHT22;27758;55.900;8.516;2022-09-27T05:06:03;9.40;99.90
42099;DHT22;27758;55.900;8.516;2022-09-27T05:08:29;9.30;99.90
42099;DHT22;27758;55.900;8.516;2022-09-27T05:10:55;9.30;99.90
42099;DHT22;27758;55.900;8.516;2022-09-27T05:13:21;9.30;99.90
42099;DHT22;27758;55.900;8.516;2022-09-27T05:15:47;9.30;99.90
42099;DHT22;27758;55.900;8.516;2022-09-27T05:18:12;9.20;99.90
42099;DHT22;27758;55.900;8.516;2022-09-27T05:20:38;9.20;99.90
42099;DHT22;27758;55.900;8.516;2022-09-27T05:23:05;9.20;99.90
42099;DHT22;27758;55.900;8.516;2022-09-27T05:25:31;9.20;99.90
42099;DHT22;27758;55.900;8.516;2022-09-27T05:27:57;9.20;99.90
42099;DHT22;27758;55.900;8.516;2022-09-27T05:30:24;9.20;99.90
42099;DHT22;27758;55.900;8.516;2022-09-27T05:32:50;9.30;99.90
42099;DHT22;27758;55.900;8.516;2022-09-27T05:35:17;9.30;99.90
42099;DHT22;27758;55.900;8.516;2022-09-27T05:37:53;9.40;99.90
42099;DHT22;27758;55.900;8.516;2022-09-27T05:40:19;9.40;99.90
42099;DHT22;27758;55.900;8.516;2022-09-27T05:42:49;9.40;99.90
42099;DHT22;27758;55.900;8.516;2022-09-27T05:45:16;9.40;99.90
42099;DHT22;27758;55.900;8.516;2022-09-27T05:47:42;9.40;99.90
42099;DHT22;27758;55.900;8.516;2022-09-27T05:50:08;9.40;99.90
42099;DHT22;27758;55.900;8.516;2022-09-27T05:52:34;9.50;99.90
42099;DHT22;27758;55.900;8.516;2022-09-27T05:55:00;9.50;99.90
42099;DHT22;27758;55.900;8.516;2022-09-27T05:57:26;9.50;99.90
42099;DHT22;27758;55.900;8.516;2022-09-27T05:59:51;9.60;99.90
42099;DHT22;27758;55.900;8.516;2022-09-27T06:02:17;9.60;99.90
42099;DHT22;27758;55.900;8.516;2022-09-27T06:04:43;9.60;99.90
42099;DHT22;27758;55.900;8.516;2022-09-27T06:07:09;9.70;99.90
42099;DHT22;27758;55.900;8.516;2022-09-27T06:09:35;9.70;99.90
42099;DHT22;27758;55.900;8.516;2022-09-27T06:12:01;9.80;99.90
42099;DHT22;27758;55.900;8.516;2022-09-27T06:14:26;9.70;99.90
42099;DHT22;27758;55.900;8.516;2022-09-27T06:16:52;9.80;99.90
42099;DHT22;27758;55.900;8.516;2022-09-27T06:19:20;9.80;99.90
42099;DHT22;27758;55.900;8.516;2022-09-27T06:21:48;9.90;99.90
42099;DHT22;27758;55.900;8.516;2022-09-27T06:24:15;9.90;99.90
42099;DHT22;27758;55.900;8.516;2022-09-27T06:26:41;10.00;99.90
42099;DHT22;27758;55.900;8.516;2022-09-27T06:29:07;10.00;99.90
42099;DHT22;27758;55.900;8.516;2022-09-27T06:31:33;10.10;99.90
42099;DHT22;27758;55.900;8.516;2022-09-27T06:33:59;10.20;99.90
42099;DHT22;27758;55.900;8.516;2022-09-27T06:36:25;10.20;99.90
42099;DHT22;27758;55.900;8.516;2022-09-27T06:38:50;10.30;99.90
42099;DHT22;27758;55.900;8.516;2022-09-27T06:41:16;10.30;99.90
42099;DHT22;27758;55.900;8.516;2022-09-27T06:43:42;10.40;99.90
42099;DHT22;27758;55.900;8.516;2022-09-27T06:46:08;10.40;99.90
42099;DHT22;27758;55.900;8.516;2022-09-27T06:48:34;10.40;99.90
42099;DHT22;27758;55.900;8.516;2022-09-27T06:51:02;10.50;99.90
42099;DHT22;27758;55.900;8.516;2022-09-27T06:53:27;10.40;99.90
42099;DHT22;27758;55.900;8.516;2022-09-27T06:55:57;10.50;99.90
42099;DHT22;27758;55.900;8.516;2022-09-27T06:58:24;10.60;99.90
42099;DHT22;27758;55.900;8.516;2022-09-27T07:01:09;10.60;99.90
42099;DHT22;27758;55.900;8.516;2022-09-27T07:03:35;10.70;99.90
42099;DHT22;27758;55.900;8.516;2022-09-27T07:06:05;10.70;99.90
42099;DHT22;27758;55.900;8.516;2022-09-27T07:08:31;10.80;99.90
42099;DHT22;27758;55.900;8.516;2022-09-27T07:11:04;10.80;99.90
42099;DHT22;27758;55.900;8.516;2022-09-27T07:13:30;10.90;99.90
42099;DHT22;27758;55.900;8.516;2022-09-27T07:16:02;10.90;99.90
42099;DHT22;27758;55.900;8.516;2022-09-27T07:18:28;11.00;99.90
42099;DHT22;27758;55.900;8.516;2022-09-27T07:20:53;11.00;99.90
42099;DHT22;27758;55.900;8.516;2022-09-27T07:23:19;11.10;99.90
42099;DHT22;27758;55.900;8.516;2022-09-27T07:25:46;11.20;99.90
42099;DHT22;27758;55.900;8.516;2022-09-27T07:28:14;11.30;99.90
42099;DHT22;27758;55.900;8.516;2022-09-27T07:30:41;11.40;99.90
42099;DHT22;27758;55.900;8.516;2022-09-27T07:33:08;11.40;99.90
42099;DHT22;27758;55.900;8.516;2022-09-27T07:35:34;11.50;99.90
42099;DHT22;27758;55.900;8.516;2022-09-27T07:38:05;11.50;99.90
42099;DHT22;27758;55.900;8.516;2022-09-27T07:40:36;11.60;99.90
42099;DHT22;27758;55.900;8.516;2022-09-27T07:43:02;11.60;99.90
42099;DHT22;27758;55.900;8.516;2022-09-27T07:45:30;11.70;99.90
42099;DHT22;27758;55.900;8.516;2022-09-27T07:47:56;11.80;99.90
42099;DHT22;27758;55.900;8.516;2022-09-27T07:50:22;11.90;99.90
42099;DHT22;27758;55.900;8.516;2022-09-27T07:52:48;11.90;99.90
42099;DHT22;27758;55.900;8.516;2022-09-27T07:55:16;12.00;99.90
42099;DHT22;27758;55.900;8.516;2022-09-27T07:57:42;12.10;99.90
42099;DHT22;27758;55.900;8.516;2022-09-27T08:00:14;12.10;99.90
42099;DHT22;27758;55.900;8.516;2022-09-27T08:02:41;12.20;99.90
42099;DHT22;27758;55.900;8.516;2022-09-27T08:05:07;12.10;99.90
42099;DHT22;27758;55.900;8.516;2022-09-27T08:07:33;12.10;99.90
42099;DHT22;27758;55.900;8.516;2022-09-27T08:09:59;12.10;99.90
42099;DHT22;27758;55.900;8.516;2022-09-27T08:12:24;12.10;99.90
42099;DHT22;27758;55.900;8.516;2022-09-27T08:14:50;12.10;99.90
42099;DHT22;27758;55.900;8.516;2022-09-27T08:17:17;12.20;99.90
42099;DHT22;27758;55.900;8.516;2022-09-27T08:19:44;12.20;99.90
42099;DHT22;27758;55.900;8.516;2022-09-27T08:22:11;12.20;99.90
42099;DHT22;27758;55.900;8.516;2022-09-27T08:24:41;12.10;99.90
42099;DHT22;27758;55.900;8.516;2022-09-27T08:27:07;12.10;99.90
42099;DHT22;27758;55.900;8.516;2022-09-27T08:29:35;12.20;99.90
42099;DHT22;27758;55.900;8.516;2022-09-27T08:32:01;12.10;99.90
42099;DHT22;27758;55.900;8.516;2022-09-27T08:34:27;12.20;99.90
42099;DHT22;27758;55.900;8.516;2022-09-27T08:36:54;12.30;99.90
42099;DHT22;27758;55.900;8.516;2022-09-27T08:39:21;12.40;99.90
42099;DHT22;27758;55.900;8.516;2022-09-27T08:42:03;12.40;99.90
42099;DHT22;27758;55.900;8.516;2022-09-27T08:44:58;12.40;99.90
42099;DHT22;27758;55.900;8.516;2022-09-27T08:47:39;12.50;99.90
42099;DHT22;27758;55.900;8.516;2022-09-27T08:52:50;12.60;99.90
42099;DHT22;27758;55.900;8.516;2022-09-27T08:55:43;12.70;99.90
42099;DHT22;27758;55.900;8.516;2022-09-27T08:58:29;12.80;99.90
42099;DHT22;27758;55.900;8.516;2022-09-27T09:00:57;12.90;99.90
42099;DHT22;27758;55.900;8.516;2022-09-27T09:03:27;13.00;99.90
42099;DHT22;27758;55.900;8.516;2022-09-27T09:06:20;13.00;99.90
42099;DHT22;27758;55.900;8.516;2022-09-27T09:09:04;13.10;99.90
42099;DHT22;27758;55.900;8.516;2022-09-27T09:12:07;13.10;99.90
42099;DHT22;27758;55.900;8.516;2022-09-27T09:15:20;13.10;99.90
42099;DHT22;27758;55.900;8.516;2022-09-27T09:18:05;13.10;99.90
42099;DHT22;27758;55.900;8.516;2022-09-27T09:31:32;13.30;99.90
42099;DHT22;27758;55.900;8.516;2022-09-27T09:37:32;13.40;99.90
42099;DHT22;27758;55.900;8.516;2022-09-27T09:42:53;13.40;99.90
42099;DHT22;27758;55.900;8.516;2022-09-27T09:46:08;13.50;99.90
42099;DHT22;27758;55.900;8.516;2022-09-27T09:51:31;13.60;99.90
42099;DHT22;27758;55.900;8.516;2022-09-27T09:54:20;13.60;99.90
42099;DHT22;27758;55.900;8.516;2022-09-27T09:56:51;13.70;99.90
42099;DHT22;27758;55.900;8.516;2022-09-27T10:02:33;13.60;99.90
42099;DHT22;27758;55.900;8.516;2022-09-27T10:05:04;13.60;99.90
42099;DHT22;27758;55.900;8.516;2022-09-27T10:07:32;13.60;99.90
42099;DHT22;27758;55.900;8.516;2022-09-27T10:10:00;13.70;99.90
42099;DHT22;27758;55.900;8.516;2022-09-27T10:12:27;13.70;99.90
42099;DHT22;27758;55.900;8.516;2022-09-27T10:14:56;13.90;99.90
42099;DHT22;27758;55.900;8.516;2022-09-27T10:17:26;14.00;99.90
42099;DHT22;27758;55.900;8.516;2022-09-27T10:19:55;14.00;99.90
42099;DHT22;27758;55.900;8.516;2022-09-27T10:22:23;14.10;99.90
42099;DHT22;27758;55.900;8.516;2022-09-27T10:27:22;14.40;99.90
42099;DHT22;27758;55.900;8.516;2022-09-27T10:29:56;14.60;99.90
42099;DHT22;27758;55.900;8.516;2022-09-27T10:32:26;14.70;99.90
42099;DHT22;27758;55.900;8.516;2022-09-27T10:34:52;14.70;99.90
42099;DHT22;27758;55.900;8.516;2022-09-27T10:37:21;14.80;99.90
42099;DHT22;27758;55.900;8.516;2022-09-27T10:39:48;14.80;99.90
42099;DHT22;27758;55.900;8.516;2022-09-27T10:44:45;15.00;99.90
42099;DHT22;27758;55.900;8.516;2022-09-27T10:47:16;15.00;99.90
42099;DHT22;27758;55.900;8.516;2022-09-27T10:49:47;15.10;99.90
42099;DHT22;27758;55.900;8.516;2022-09-27T10:52:21;15.10;99.90
42099;DHT22;27758;55.900;8.516;2022-09-27T10:55:00;15.00;99.90
42099;DHT22;27758;55.900;8.516;2022-09-27T10:57:30;15.00;99.90
42099;DHT22;27758;55.900;8.516;2022-09-27T10:59:59;14.80;99.90
42099;DHT22;27758;55.900;8.516;2022-09-27T11:02:36;14.50;99.90
42099;DHT22;27758;55.900;8.516;2022-09-27T11:05:29;14.40;99.90
42099;DHT22;27758;55.900;8.516;2022-09-27T11:08:01;14.30;99.90
42099;DHT22;27758;55.900;8.516;2022-09-27T11:10:58;14.10;99.90
42099;DHT22;27758;55.900;8.516;2022-09-27T11:13:25;14.00;99.90
42099;DHT22;27758;55.900;8.516;2022-09-27T11:16:20;13.90;99.90
42099;DHT22;27758;55.900;8.516;2022-09-27T11:25:09;13.80;99.90
42099;DHT22;27758;55.900;8.516;2022-09-27T11:30:19;13.80;99.90
42099;DHT22;27758;55.900;8.516;2022-09-27T11:38:20;13.90;99.90
42099;DHT22;27758;55.900;8.516;2022-09-27T11:46:34;13.80;99.90
42099;DHT22;27758;55.900;8.516;2022-09-27T11:57:37;13.90;99.90
42099;DHT22;27758;55.900;8.516;2022-09-27T12:00:09;13.90;99.90
42099;DHT22;27758;55.900;8.516;2022-09-27T12:07:48;13.80;99.90
42099;DHT22;27758;55.900;8.516;2022-09-27T12:10:17;13.80;99.90
42099;DHT22;27758;55.900;8.516;2022-09-27T12:12:49;13.80;99.90
42099;DHT22;27758;55.900;8.516;2022-09-27T12:15:19;13.80;99.90
42099;DHT22;27758;55.900;8.516;2022-09-27T12:17:49;13.80;99.90
42099;DHT22;27758;55.900;8.516;2022-09-27T12:20:26;13.80;99.90
42099;DHT22;27758;55.900;8.516;2022-09-27T12:23:17;13.70;99.90
42099;DHT22;27758;55.900;8.516;2022-09-27T12:25:47;13.80;99.90
42099;DHT22;27758;55.900;8.516;2022-09-27T12:31:18;13.70;99.90
42099;DHT22;27758;55.900;8.516;2022-09-27T12:36:33;13.60;99.90
42099;DHT22;27758;55.900;8.516;2022-09-27T12:39:05;13.70;99.90
42099;DHT22;27758;55.900;8.516;2022-09-27T12:41:40;13.60;99.90
42099;DHT22;27758;55.900;8.516;2022-09-27T12:44:09;13.60;99.90
42099;DHT22;27758;55.900;8.516;2022-09-27T12:52:20;13.60;99.90
42099;DHT22;27758;55.900;8.516;2022-09-27T12:55:15;13.40;99.90
42099;DHT22;27758;55.900;8.516;2022-09-27T13:00:24;13.40;99.90
42099;DHT22;27758;55.900;8.516;2022-09-27T13:03:05;13.40;99.90
42099;DHT22;27758;55.900;8.516;2022-09-27T13:08:52;13.40;99.90
42099;DHT22;27758;55.900;8.516;2022-09-27T13:11:28;13.50;99.90
42099;DHT22;27758;55.900;8.516;2022-09-27T13:14:02;13.50;99.90
42099;DHT22;27758;55.900;8.516;2022-09-27T13:16:28;13.50;99.90
42099;DHT22;27758;55.900;8.516;2022-09-27T13:18:58;13.40;99.90
42099;DHT22;27758;55.900;8.516;2022-09-27T13:35:35;13.70;99.90
42099;DHT22;27758;55.900;8.516;2022-09-27T13:38:02;13.80;99.90
42099;DHT22;27758;55.900;8.516;2022-09-27T13:40:47;13.80;99.90
42099;DHT22;27758;55.900;8.516;2022-09-27T13:46:06;13.90;99.90
42099;DHT22;27758;55.900;8.516;2022-09-27T13:48:50;13.70;99.90
42099;DHT22;27758;55.900;8.516;2022-09-27T13:54:05;13.80;99.90
42099;DHT22;27758;55.900;8.516;2022-09-27T13:59:10;13.80;99.90
42099;DHT22;27758;55.900;8.516;2022-09-27T14:01:42;13.80;99.90
42099;DHT22;27758;55.900;8.516;2022-09-27T14:04:21;13.80;99.90
42099;DHT22;27758;55.900;8.516;2022-09-27T14:06:54;13.80;99.90
42099;DHT22;27758;55.900;8.516;2022-09-27T14:09:28;13.70;99.90
42099;DHT22;27758;55.900;8.516;2022-09-27T14:11:59;13.60;99.90
42099;DHT22;27758;55.900;8.516;2022-09-27T14:14:29;13.70;99.90
42099;DHT22;27758;55.900;8.516;2022-09-27T14:16:58;13.60;99.90
42099;DHT22;27758;55.900;8.516;2022-09-27T14:19:25;13.60;99.90
42099;DHT22;27758;55.900;8.516;2022-09-27T14:21:52;13.50;99.90
42099;DHT22;27758;55.900;8.516;2022-09-27T14:29:44;13.40;99.90
42099;DHT22;27758;55.900;8.516;2022-09-27T14:32:16;13.40;99.90
42099;DHT22;27758;55.900;8.516;2022-09-27T14:34:43;13.30;99.90
42099;DHT22;27758;55.900;8.516;2022-09-27T14:37:22;13.30;99.90
42099;DHT22;27758;55.900;8.516;2022-09-27T14:39:52;13.40;99.90
42099;DHT22;27758;55.900;8.516;2022-09-27T14:42:21;13.30;99.90
42099;DHT22;27758;55.900;8.516;2022-09-27T14:44:48;13.30;99.90
42099;DHT22;27758;55.900;8.516;2022-09-27T14:47:19;13.20;99.90
42099;DHT22;27758;55.900;8.516;2022-09-27T14:49:48;13.10;99.90
42099;DHT22;27758;55.900;8.516;2022-09-27T14:52:17;12.90;99.90
42099;DHT22;27758;55.900;8.516;2022-09-27T14:54:43;12.90;99.90
42099;DHT22;27758;55.900;8.516;2022-09-27T14:57:14;12.80;99.90
42099;DHT22;27758;55.900;8.516;2022-09-27T14:59:41;12.80;99.90
42099;DHT22;27758;55.900;8.516;2022-09-27T15:02:17;12.80;99.90
42099;DHT22;27758;55.900;8.516;2022-09-27T15:04:46;12.70;99.90
42099;DHT22;27758;55.900;8.516;2022-09-27T15:07:13;12.70;99.90
42099;DHT22;27758;55.900;8.516;2022-09-27T15:09:42;12.60;99.90
42099;DHT22;27758;55.900;8.516;2022-09-27T15:12:12;12.60;99.90
42099;DHT22;27758;55.900;8.516;2022-09-27T15:14:40;12.60;99.90
42099;DHT22;27758;55.900;8.516;2022-09-27T15:17:19;12.60;99.90
42099;DHT22;27758;55.900;8.516;2022-09-27T15:20:16;12.60;99.90
42099;DHT22;27758;55.900;8.516;2022-09-27T15:22:43;12.50;99.90
42099;DHT22;27758;55.900;8.516;2022-09-27T15:25:19;12.50;99.90
42099;DHT22;27758;55.900;8.516;2022-09-27T15:27:48;12.40;99.90
42099;DHT22;27758;55.900;8.516;2022-09-27T15:30:23;12.40;99.90
42099;DHT22;27758;55.900;8.516;2022-09-27T15:32:52;12.40;99.90
42099;DHT22;27758;55.900;8.516;2022-09-27T15:35:25;12.40;99.90
42099;DHT22;27758;55.900;8.516;2022-09-27T15:37:51;12.40;99.90
42099;DHT22;27758;55.900;8.516;2022-09-27T15:46:14;12.30;99.90
42099;DHT22;27758;55.900;8.516;2022-09-27T15:49:27;12.20;99.90
42099;DHT22;27758;55.900;8.516;2022-09-27T15:52:00;12.20;99.90
42099;DHT22;27758;55.900;8.516;2022-09-27T15:54:30;12.10;99.90
42099;DHT22;27758;55.900;8.516;2022-09-27T15:57:01;12.10;99.90
42099;DHT22;27758;55.900;8.516;2022-09-27T15:59:32;12.10;99.90
42099;DHT22;27758;55.900;8.516;2022-09-27T16:02:01;12.10;99.90
42099;DHT22;27758;55.900;8.516;2022-09-27T16:04:28;12.10;99.90
42099;DHT22;27758;55.900;8.516;2022-09-27T16:06:59;12.00;99.90
42099;DHT22;27758;55.900;8.516;2022-09-27T16:09:25;12.10;99.90
42099;DHT22;27758;55.900;8.516;2022-09-27T16:11:51;12.00;99.90
42099;DHT22;27758;55.900;8.516;2022-09-27T16:14:17;12.00;99.90
42099;DHT22;27758;55.900;8.516;2022-09-27T16:16:52;12.00;99.90
42099;DHT22;27758;55.900;8.516;2022-09-27T16:19:19;12.00;99.90
42099;DHT22;27758;55.900;8.516;2022-09-27T16:21:45;12.00;99.90
42099;DHT22;27758;55.900;8.516;2022-09-27T16:24:13;12.00;99.90
42099;DHT22;27758;55.900;8.516;2022-09-27T16:26:39;11.90;99.90
42099;DHT22;27758;55.900;8.516;2022-09-27T16:29:09;11.90;99.90
42099;DHT22;27758;55.900;8.516;2022-09-27T16:31:35;11.80;99.90
42099;DHT22;27758;55.900;8.516;2022-09-27T16:34:01;11.80;99.90
42099;DHT22;27758;55.900;8.516;2022-09-27T16:36:27;11.70;99.90
42099;DHT22;27758;55.900;8.516;2022-09-27T16:38:53;11.70;99.90
42099;DHT22;27758;55.900;8.516;2022-09-27T16:41:20;11.80;99.90
42099;DHT22;27758;55.900;8.516;2022-09-27T16:43:46;11.70;99.90
42099;DHT22;27758;55.900;8.516;2022-09-27T16:46:13;11.70;99.90
42099;DHT22;27758;55.900;8.516;2022-09-27T16:48:44;11.70;99.90
42099;DHT22;27758;55.900;8.516;2022-09-27T16:51:18;11.70;99.90
42099;DHT22;27758;55.900;8.516;2022-09-27T16:54:04;11.70;99.90
42099;DHT22;27758;55.900;8.516;2022-09-27T16:56:31;11.70;99.90
42099;DHT22;27758;55.900;8.516;2022-09-27T16:58:58;11.70;99.90
42099;DHT22;27758;55.900;8.516;2022-09-27T17:01:25;11.60;99.90
42099;DHT22;27758;55.900;8.516;2022-09-27T17:03:53;11.50;99.90
42099;DHT22;27758;55.900;8.516;2022-09-27T17:06:19;11.50;99.90
42099;DHT22;27758;55.900;8.516;2022-09-27T17:08:46;11.50;99.90
42099;DHT22;27758;55.900;8.516;2022-09-27T17:11:16;11.50;99.90
42099;DHT22;27758;55.900;8.516;2022-09-27T17:13:43;11.50;99.90
42099;DHT22;27758;55.900;8.516;2022-09-27T17:16:10;11.50;99.90
42099;DHT22;27758;55.900;8.516;2022-09-27T17:18:37;11.50;99.90
42099;DHT22;27758;55.900;8.516;2022-09-27T17:21:04;11.40;99.90
42099;DHT22;27758;55.900;8.516;2022-09-27T17:23:31;11.40;99.90
42099;DHT22;27758;55.900;8.516;2022-09-27T17:26:05;11.40;99.90
42099;DHT22;27758;55.900;8.516;2022-09-27T17:28:35;11.40;99.90
42099;DHT22;27758;55.900;8.516;2022-09-27T17:31:21;11.30;99.90
42099;DHT22;27758;55.900;8.516;2022-09-27T17:33:49;11.30;99.90
42099;DHT22;27758;55.900;8.516;2022-09-27T17:36:20;11.30;99.90
42099;DHT22;27758;55.900;8.516;2022-09-27T17:38:49;11.30;99.90
42099;DHT22;27758;55.900;8.516;2022-09-27T17:41:21;11.30;99.90
42099;DHT22;27758;55.900;8.516;2022-09-27T17:43:52;11.30;99.90
42099;DHT22;27758;55.900;8.516;2022-09-27T17:46:27;11.20;99.90
42099;DHT22;27758;55.900;8.516;2022-09-27T17:48:53;11.20;99.90
42099;DHT22;27758;55.900;8.516;2022-09-27T17:51:39;11.10;99.90
42099;DHT22;27758;55.900;8.516;2022-09-27T17:54:07;11.20;99.90
42099;DHT22;27758;55.900;8.516;2022-09-27T17:56:37;11.10;99.90
42099;DHT22;27758;55.900;8.516;2022-09-27T17:59:03;11.10;99.90
42099;DHT22;27758;55.900;8.516;2022-09-27T18:01:29;11.10;99.90
42099;DHT22;27758;55.900;8.516;2022-09-27T18:03:56;11.10;99.90
42099;DHT22;27758;55.900;8.516;2022-09-27T18:06:22;11.00;99.90
42099;DHT22;27758;55.900;8.516;2022-09-27T18:08:49;11.00;99.90
42099;DHT22;27758;55.900;8.516;2022-09-27T18:11:17;11.00;99.90
42099;DHT22;27758;55.900;8.516;2022-09-27T18:13:43;11.00;99.90
42099;DHT22;27758;55.900;8.516;2022-09-27T18:16:14;11.00;99.90
42099;DHT22;27758;55.900;8.516;2022-09-27T18:18:43;11.00;99.90
42099;DHT22;27758;55.900;8.516;2022-09-27T18:21:11;11.00;99.90
42099;DHT22;27758;55.900;8.516;2022-09-27T18:23:39;11.00;99.90
42099;DHT22;27758;55.900;8.516;2022-09-27T18:26:06;11.10;99.90
42099;DHT22;27758;55.900;8.516;2022-09-27T18:28:36;10.90;99.90